Murfreesboro, TN (37127)

7:57 AM CDT on April 25, 2017 (GMT -0500)
Tulip Hill | | Change Station
Active Advisory: Dense Fog Advisory

Elev 623 ft 35.81 °N, 86.37 °W | Updated 33 seconds ago

Mostly Cloudy
Mostly Cloudy
56.7 °F
Feels Like 56.7 °F
N
0.0
Wind Variable Wind from SSE

Today
High -- | Low -- °F
--% Chance of Precip.
Yesterday
High -- | Low -- °F
Precip. -- in
Pressure 29.82 in
Visibility 3.0 miles
Clouds Few 200 ft
Dew Point 55 °F
Humidity 96%
Rainfall 0.00 in
Snow Depth Not available.
5:59 AM 7:27 PM
Waning Crescent, 1% visible
SPECI KMQY 251243Z 13003KT 3SM BR BCFG FEW002 12/11 A2982 RMK AO2 VIS W-NW 1
Pressure 29.82 in
Visibility 3.0 miles
Clouds Few 200 ft
Dew Point 55 °F
Humidity 96%
Rainfall 0.00 in
Snow Depth Not available.
5:59 AM 7:27 PM
Waning Crescent, 1% visible
SPECI KMQY 251243Z 13003KT 3SM BR BCFG FEW002 12/11 A2982 RMK AO2 VIS W-NW 1

Get Your Daily Forecast Email!

Thanks for signing up!

Be on the lookout for a verification email in your inbox.

You'll start receiving severe weather alerts in your inbox..

×

10-Day Weather Forecast

Almanac

Astronomy

Apr. 25, 2017 Rise Set
Actual Time
Civil Twilight
Nautical Twilight
Astronomical Twilight
Moon
Length of Visible Light
Length of Day
Tomorrow will be .
, % of the Moon is Illuminated

Today's Extremes

State Highs State Lows

Community

WunderPhotos

WunderBlog® & News

Nearby

Air Quality

  Air Quality AQ Index Pollutant
Not available.

Snow Depth

Station Depth Elevation

Earthquake Activity

City Distance Mag. Time & Date
Minimum magnitude displayed is 2.5.

Coastal Water Temperatures

Place Temperature

Stations

Nearby Weather Stations

Station Location Temp. Windchill Dew Point Humidity Wind Precip. Elev Updated Type
                   

Watches & Warnings

Dense Fog Advisory
Issued: 6:49 PM CDT Apr. 24, 2017 – National Weather Service

... Dense fog advisory in effect from 4 am to 9 am CDT Tuesday...

The National Weather Service in Nashville has issued a dense fog
advisory, which is in effect from 4 am to 9 am CDT Tuesday.

* Visibility... less than one quarter of a mile in many locations.

* Impacts... hazardous travel conditions expected.

Precautionary/preparedness actions...

A dense fog advisory means visibilities will frequently be
reduced to less than one quarter mile. If driving... slow down...
use your low beam headlights... and leave plenty of distance ahead
of you.


31